Time;durP1;ratioP1;P1;durP2;ratioP2;P2;SDS_P1;SDS_P2;PMS_P1;PMS_P2;Temp;Humidity;BMP_temperature;BMP_pressure;BME280_temperature;BME280_humidity;BME280_pressure;Samples;Min_cycle;Max_cycle;Signal;HPM_P1;HPM_P2
2023/05/09 00:01:09;;;;;;;8.40;6.80;;;23.10;58.60;;;;;;222882;1266;22526;-60
2023/05/09 00:06:14;;;;;;;10.30;6.80;;;23.10;58.70;;;;;;222578;1262;25210;-60
2023/05/09 00:11:18;;;;;;;10.70;7.30;;;23.00;58.70;;;;;;222555;1262;22504;-62
2023/05/09 00:16:23;;;;;;;10.70;7.30;;;23.00;58.20;;;;;;222444;1264;25210;-58
2023/05/09 00:21:27;;;;;;;9.30;6.90;;;22.90;58.50;;;;;;222170;1263;24215;-60
2023/05/09 00:26:31;;;;;;;10.10;6.50;;;22.90;58.50;;;;;;222144;1262;22523;-65
2023/05/09 00:31:35;;;;;;;8.90;5.90;;;22.90;58.60;;;;;;222279;1266;22504;-65
2023/05/09 00:36:40;;;;;;;9.70;6.70;;;22.80;58.30;;;;;;222385;1263;22539;-59
2023/05/09 00:41:44;;;;;;;7.70;5.80;;;22.80;58.50;;;;;;222284;1264;22518;-60
2023/05/09 00:46:49;;;;;;;7.50;5.70;;;22.80;58.30;;;;;;222391;1256;23835;-60
2023/05/09 00:51:54;;;;;;;10.10;6.90;;;22.80;58.40;;;;;;222296;1256;23911;-62
2023/05/09 00:56:59;;;;;;;7.30;6.50;;;22.80;58.40;;;;;;222421;1255;22526;-57
2023/05/09 01:02:03;;;;;;;6.70;5.40;;;22.70;58.50;;;;;;222437;1254;22521;-58
2023/05/09 01:07:21;;;;;;;6.80;5.60;;;22.70;58.50;;;;;;224432;1261;22601;-58
2023/05/09 01:12:38;;;;;;;6.10;5.50;;;22.70;57.90;;;;;;226432;1263;24451;-59
2023/05/09 01:17:48;;;;;;;6.70;5.70;;;22.70;58.10;;;;;;228533;1257;22505;-61
2023/05/09 01:23:12;;;;;;;6.90;5.30;;;22.90;58.00;;;;;;223056;1256;24222;-62
2023/05/09 01:28:29;;;;;;;6.90;5.00;;;23.30;57.20;;;;;;222551;1263;22566;-60
2023/05/09 01:33:37;;;;;;;7.00;5.20;;;23.60;57.20;;;;;;222663;1263;22508;-60
2023/05/09 01:38:43;;;;;;;6.80;4.80;;;23.80;56.10;;;;;;222541;1259;25262;-59
2023/05/09 01:43:49;;;;;;;5.70;5.00;;;23.90;55.40;;;;;;222709;1259;22640;-61
2023/05/09 01:48:56;;;;;;;6.10;5.00;;;24.00;55.20;;;;;;222951;1263;24329;-60
2023/05/09 01:54:01;;;;;;;6.60;5.10;;;24.10;55.10;;;;;;222397;1246;22652;-61
2023/05/09 01:59:06;;;;;;;6.90;5.10;;;24.10;54.90;;;;;;222841;1263;22525;-65
2023/05/09 02:04:14;;;;;;;6.50;5.10;;;24.20;55.10;;;;;;222438;1264;22636;-63
2023/05/09 02:09:19;;;;;;;7.00;5.10;;;24.20;54.70;;;;;;222815;1254;22534;-63
2023/05/09 02:14:23;;;;;;;6.20;4.60;;;24.30;54.50;;;;;;222433;1264;337285;-60
2023/05/09 02:19:28;;;;;;;6.60;4.50;;;24.30;54.50;;;;;;222229;1263;22531;-61
2023/05/09 02:24:33;;;;;;;5.70;4.90;;;24.30;54.30;;;;;;222138;1268;22510;-64
2023/05/09 02:29:48;;;;;;;6.80;4.60;;;24.40;54.70;;;;;;222700;1263;22937;-60
2023/05/09 02:34:54;;;;;;;5.80;4.70;;;24.50;54.10;;;;;;222317;1265;25552;-61
2023/05/09 02:40:00;;;;;;;5.60;4.40;;;24.50;54.10;;;;;;222191;1263;22650;-60
2023/05/09 02:45:06;;;;;;;4.90;4.00;;;24.50;54.00;;;;;;222205;1256;22796;-62
2023/05/09 02:50:11;;;;;;;5.60;4.60;;;24.30;54.40;;;;;;222409;1265;26054;-60
2023/05/09 02:55:16;;;;;;;4.60;4.20;;;24.30;54.30;;;;;;222516;1269;22514;-63
2023/05/09 03:00:21;;;;;;;4.30;3.90;;;24.30;54.50;;;;;;222453;1267;22538;-59
2023/05/09 03:05:25;;;;;;;5.40;4.60;;;24.10;54.70;;;;;;222254;1269;22645;-71
2023/05/09 03:10:29;;;;;;;6.50;4.10;;;23.90;54.90;;;;;;222604;1258;25383;-59
2023/05/09 03:15:34;;;;;;;5.90;4.70;;;23.90;54.80;;;;;;224221;1263;25150;-59
2023/05/09 03:20:39;;;;;;;4.70;3.80;;;24.00;54.50;;;;;;223845;1265;22507;-60
2023/05/09 03:25:43;;;;;;;4.90;4.30;;;23.90;54.60;;;;;;222611;1269;24331;-62
2023/05/09 03:30:49;;;;;;;5.90;4.20;;;23.80;54.80;;;;;;222617;1269;22571;-61
2023/05/09 03:35:54;;;;;;;4.20;3.70;;;23.70;56.90;;;;;;222313;1262;22524;-61
2023/05/09 03:40:59;;;;;;;4.70;4.00;;;23.60;55.70;;;;;;223088;1254;22636;-60
2023/05/09 03:46:05;;;;;;;4.90;3.90;;;23.50;55.80;;;;;;222760;1263;22631;-62
2023/05/09 03:51:10;;;;;;;4.30;3.70;;;23.40;55.90;;;;;;222616;1267;22507;-62
2023/05/09 03:56:15;;;;;;;4.40;4.00;;;23.40;56.20;;;;;;222297;1269;22504;-61
2023/05/09 04:01:24;;;;;;;5.80;4.30;;;23.30;56.50;;;;;;222508;1267;22548;-64
2023/05/09 04:06:29;;;;;;;7.00;3.90;;;23.30;56.20;;;;;;222970;1264;25370;-59
2023/05/09 04:11:34;;;;;;;4.50;3.70;;;23.10;56.20;;;;;;222739;1254;25410;-63
2023/05/09 04:16:39;;;;;;;4.60;4.20;;;23.10;56.30;;;;;;223299;1262;22659;-61
2023/05/09 04:21:44;;;;;;;4.30;3.90;;;23.00;56.30;;;;;;222453;1269;25220;-59
2023/05/09 04:26:49;;;;;;;4.80;4.30;;;23.00;56.60;;;;;;222883;1256;25376;-60
2023/05/09 04:31:56;;;;;;;4.80;4.20;;;23.00;56.60;;;;;;222867;1263;25246;-61
2023/05/09 04:37:03;;;;;;;4.50;3.80;;;22.90;56.70;;;;;;222760;1265;22631;-59
2023/05/09 04:42:07;;;;;;;5.30;4.00;;;22.90;56.70;;;;;;222650;1263;22502;-61
2023/05/09 04:47:12;;;;;;;4.90;3.80;;;22.90;56.70;;;;;;222756;1256;24048;-60
2023/05/09 04:52:17;;;;;;;4.40;4.00;;;22.90;56.70;;;;;;222521;1257;22588;-61
2023/05/09 04:57:22;;;;;;;3.90;3.60;;;22.80;56.80;;;;;;222782;1261;24354;-63
2023/05/09 05:02:30;;;;;;;5.00;3.90;;;22.70;56.80;;;;;;222958;1260;22627;-60
2023/05/09 05:07:35;;;;;;;4.00;3.70;;;23.00;56.50;;;;;;223255;1263;22562;-61
2023/05/09 05:12:40;;;;;;;4.20;3.60;;;23.20;56.20;;;;;;222788;1266;22514;-61
2023/05/09 05:17:46;;;;;;;3.70;3.40;;;23.40;56.20;;;;;;224854;1253;22724;-65
2023/05/09 05:22:53;;;;;;;3.70;3.40;;;23.60;55.30;;;;;;222957;1263;24918;-61
2023/05/09 05:27:58;;;;;;;4.10;3.70;;;23.80;54.70;;;;;;222861;1263;22510;-61
2023/05/09 05:33:03;;;;;;;4.00;3.60;;;23.80;54.60;;;;;;222414;1263;22515;-63
2023/05/09 05:38:09;;;;;;;5.20;4.00;;;23.90;54.30;;;;;;222611;1266;22502;-62
2023/05/09 05:43:14;;;;;;;4.00;3.30;;;23.90;54.20;;;;;;222602;1263;24193;-62
2023/05/09 05:48:19;;;;;;;3.00;2.80;;;24.00;54.10;;;;;;222736;1269;24499;-62
2023/05/09 05:53:23;;;;;;;3.40;3.10;;;24.00;53.90;;;;;;223045;1263;23422;-62
2023/05/09 05:58:28;;;;;;;5.40;3.30;;;24.00;54.00;;;;;;222930;1267;22502;-60
2023/05/09 06:03:32;;;;;;;5.80;3.30;;;24.00;54.50;;;;;;222756;1262;22507;-61
2023/05/09 06:08:39;;;;;;;5.10;3.20;;;23.90;55.20;;;;;;222278;1266;22621;-67
2023/05/09 06:13:44;;;;;;;3.90;3.10;;;23.90;54.90;;;;;;222872;1266;24238;-68
2023/05/09 06:18:48;;;;;;;6.00;2.80;;;23.90;55.00;;;;;;222769;1256;24038;-61
2023/05/09 06:23:52;;;;;;;3.80;3.40;;;23.90;55.30;;;;;;222708;1269;22552;-66
2023/05/09 06:28:59;;;;;;;9.20;3.10;;;23.90;55.40;;;;;;222683;1266;22607;-64
2023/05/09 06:34:05;;;;;;;4.80;3.30;;;24.00;55.20;;;;;;223089;1263;22517;-64
2023/05/09 06:39:09;;;;;;;4.40;3.10;;;24.00;55.50;;;;;;222546;1268;22505;-65
2023/05/09 06:44:13;;;;;;;51.50;23.40;;;24.10;55.30;;;;;;222847;1266;22512;-67
2023/05/09 06:49:18;;;;;;;79.70;38.20;;;24.10;55.30;;;;;;222418;1260;22557;-65
2023/05/09 06:54:23;;;;;;;134.30;62.70;;;24.00;55.40;;;;;;222575;1264;27066;-63
2023/05/09 06:59:27;;;;;;;116.50;50.40;;;24.00;55.30;;;;;;222718;1269;22627;-68
2023/05/09 07:04:32;;;;;;;98.30;43.30;;;24.00;56.40;;;;;;222706;1256;22508;-65
2023/05/09 07:09:36;;;;;;;90.10;42.20;;;23.90;55.00;;;;;;222653;1266;24422;-61
2023/05/09 07:14:40;;;;;;;86.90;37.30;;;23.90;55.20;;;;;;222532;1258;22570;-59
2023/05/09 07:19:45;;;;;;;72.40;36.40;;;23.90;55.70;;;;;;222439;1266;24380;-59
2023/05/09 07:24:49;;;;;;;70.00;33.90;;;23.90;54.60;;;;;;222208;1247;22791;-59
2023/05/09 07:29:54;;;;;;;73.80;34.20;;;23.90;54.60;;;;;;222820;1247;23931;-63
2023/05/09 07:34:58;;;;;;;59.20;29.40;;;23.80;54.50;;;;;;223024;1257;24311;-65
2023/05/09 07:40:04;;;;;;;57.90;27.10;;;23.70;52.40;;;;;;230089;1267;22134;-67
2023/05/09 07:45:09;;;;;;;61.90;28.10;;;23.80;53.20;;;;;;227746;1266;25211;-65
2023/05/09 07:50:14;;;;;;;55.30;26.40;;;24.00;52.90;;;;;;226369;1264;22510;-66
2023/05/09 07:55:18;;;;;;;52.60;26.00;;;24.00;52.60;;;;;;222501;1258;24335;-65
2023/05/09 08:00:23;;;;;;;50.00;25.70;;;23.90;52.40;;;;;;226195;1263;22507;-64
2023/05/09 08:05:27;;;;;;;53.70;25.40;;;23.90;52.60;;;;;;222790;1263;25262;-68
2023/05/09 08:10:32;;;;;;;50.90;25.90;;;23.70;52.70;;;;;;222744;1264;22623;-65
2023/05/09 08:15:36;;;;;;;50.50;25.60;;;23.80;52.40;;;;;;222777;1263;22527;-66
2023/05/09 08:20:41;;;;;;;46.50;24.10;;;23.80;52.80;;;;;;222410;1267;24052;-62
2023/05/09 08:25:45;;;;;;;41.40;22.20;;;23.80;52.80;;;;;;222125;1269;24046;-65
2023/05/09 08:30:50;;;;;;;40.70;22.40;;;23.70;52.40;;;;;;222264;1268;22634;-63
2023/05/09 08:35:55;;;;;;;37.00;22.30;;;23.80;52.80;;;;;;222924;1263;24194;-67
2023/05/09 08:41:00;;;;;;;41.80;20.80;;;23.80;52.40;;;;;;222821;1266;24314;-65
2023/05/09 08:46:09;;;;;;;42.20;21.20;;;23.70;52.60;;;;;;222776;1266;25475;-65
2023/05/09 08:51:16;;;;;;;36.10;21.40;;;23.80;52.50;;;;;;222558;1266;24177;-64
2023/05/09 08:56:21;;;;;;;36.50;18.30;;;23.60;52.60;;;;;;223093;1266;22508;-63
2023/05/09 09:01:26;;;;;;;33.00;18.40;;;23.60;52.50;;;;;;222859;1254;22531;-65
2023/05/09 09:06:33;;;;;;;38.20;18.80;;;23.60;52.20;;;;;;222404;1262;24330;-64
2023/05/09 09:11:39;;;;;;;30.70;17.90;;;23.60;52.50;;;;;;223028;1269;25363;-63
2023/05/09 09:16:45;;;;;;;31.20;17.70;;;23.50;52.80;;;;;;222787;1263;25386;-61
2023/05/09 09:21:53;;;;;;;26.50;15.50;;;23.60;52.60;;;;;;222761;1249;22530;-60
2023/05/09 09:27:05;;;;;;;33.50;17.30;;;23.40;51.80;;;;;;222809;1261;22620;-61
2023/05/09 09:32:09;;;;;;;26.40;16.00;;;23.40;52.00;;;;;;222647;1266;22518;-60
2023/05/09 09:37:22;;;;;;;29.80;16.70;;;23.40;51.40;;;;;;222441;1264;24236;-60
2023/05/09 09:42:26;;;;;;;26.00;15.60;;;23.40;51.30;;;;;;222506;1268;22518;-61
2023/05/09 09:47:31;;;;;;;29.70;14.70;;;23.50;51.70;;;;;;222460;1263;22782;-61
2023/05/09 09:52:35;;;;;;;25.20;14.80;;;23.50;51.20;;;;;;222178;1266;22955;-59
2023/05/09 09:57:42;;;;;;;22.80;14.90;;;23.50;51.70;;;;;;222301;1269;22514;-60
2023/05/09 10:02:52;;;;;;;26.50;15.20;;;23.50;51.60;;;;;;222779;1266;22624;-61
2023/05/09 10:07:59;;;;;;;23.90;13.30;;;23.50;51.50;;;;;;222359;1261;22510;-63
2023/05/09 10:13:10;;;;;;;24.80;14.10;;;23.40;51.70;;;;;;222623;1262;25290;-60
2023/05/09 10:18:18;;;;;;;19.60;12.70;;;23.40;51.60;;;;;;223276;1266;22677;-60
2023/05/09 10:23:24;;;;;;;17.50;12.70;;;23.40;51.60;;;;;;223034;1266;24236;-59
2023/05/09 10:28:32;;;;;;;18.00;12.50;;;23.40;51.60;;;;;;222823;1266;22504;-59
2023/05/09 10:33:47;;;;;;;19.10;12.80;;;23.40;51.80;;;;;;222849;1266;22626;-61
2023/05/09 10:38:55;;;;;;;19.30;12.90;;;23.40;51.70;;;;;;222520;1264;25284;-61
2023/05/09 10:43:59;;;;;;;21.10;12.40;;;23.50;51.60;;;;;;222962;1268;25246;-60
2023/05/09 10:49:04;;;;;;;18.30;11.90;;;23.60;51.40;;;;;;222591;1263;22511;-60
2023/05/09 10:54:26;;;;;;;17.70;12.10;;;23.60;51.40;;;;;;222899;1266;25199;-61
2023/05/09 10:59:39;;;;;;;18.30;11.80;;;23.50;52.20;;;;;;222671;1268;22517;-63
2023/05/09 11:04:43;;;;;;;18.50;10.70;;;23.50;51.60;;;;;;222973;1266;24214;-63
2023/05/09 11:09:52;;;;;;;16.70;10.90;;;23.50;51.80;;;;;;222655;1248;22721;-61
2023/05/09 11:15:04;;;;;;;17.70;10.90;;;23.50;51.80;;;;;;222789;1263;25466;-61
2023/05/09 11:20:08;;;;;;;14.30;9.30;;;23.50;51.80;;;;;;222811;1269;25331;-61
2023/05/09 11:25:14;;;;;;;14.00;9.70;;;23.60;51.80;;;;;;222355;1269;24359;-61
2023/05/09 11:30:19;;;;;;;13.00;10.00;;;23.70;51.50;;;;;;222795;1268;22600;-60
2023/05/09 11:35:25;;;;;;;17.00;10.70;;;23.70;51.50;;;;;;222887;1269;24232;-61
2023/05/09 11:40:31;;;;;;;14.00;9.30;;;23.70;51.30;;;;;;223146;1269;24372;-61
2023/05/09 11:45:35;;;;;;;17.20;10.20;;;23.70;51.20;;;;;;222638;1266;22523;-61
2023/05/09 11:50:40;;;;;;;11.20;8.80;;;23.70;50.80;;;;;;222336;1269;25452;-61
2023/05/09 11:55:44;;;;;;;11.50;8.40;;;23.70;51.00;;;;;;222442;1263;22515;-59
2023/05/09 12:00:48;;;;;;;13.80;9.50;;;23.80;51.30;;;;;;223284;1266;22514;-62
2023/05/09 12:05:54;;;;;;;12.60;8.50;;;23.80;50.80;;;;;;222881;1266;25454;-61
2023/05/09 12:11:07;;;;;;;11.10;8.40;;;23.80;50.70;;;;;;222866;1269;22521;-61
2023/05/09 12:16:11;;;;;;;11.10;7.90;;;23.80;50.70;;;;;;222693;1268;22571;-60
2023/05/09 12:21:17;;;;;;;12.40;7.80;;;23.70;50.50;;;;;;222853;1268;22562;-61
2023/05/09 12:26:22;;;;;;;10.80;7.90;;;23.60;49.40;;;;;;222543;1264;22514;-61
2023/05/09 12:31:27;;;;;;;11.40;7.80;;;23.70;50.00;;;;;;222539;1246;22689;-62
2023/05/09 12:36:34;;;;;;;11.40;8.60;;;23.70;49.60;;;;;;222473;1263;25134;-59
2023/05/09 12:41:46;;;;;;;11.50;7.80;;;23.80;50.30;;;;;;223103;1266;26507;-61
2023/05/09 12:47:04;;;;;;;10.70;7.90;;;23.70;50.00;;;;;;222747;1267;22521;-61
2023/05/09 12:52:18;;;;;;;11.80;7.00;;;23.70;50.00;;;;;;222633;1264;22971;-61
2023/05/09 12:57:26;;;;;;;10.60;7.30;;;23.70;49.90;;;;;;222868;1266;22507;-61
2023/05/09 13:02:38;;;;;;;9.00;6.80;;;23.70;50.00;;;;;;222541;1269;22621;-61
2023/05/09 13:07:44;;;;;;;9.90;7.30;;;23.80;50.00;;;;;;222584;1266;25687;-61
2023/05/09 13:12:50;;;;;;;8.30;6.30;;;23.80;50.20;;;;;;222513;1268;22516;-61
2023/05/09 13:17:54;;;;;;;13.00;7.70;;;23.80;50.10;;;;;;222641;1267;26306;-61
2023/05/09 13:22:58;;;;;;;9.10;6.70;;;23.70;50.00;;;;;;222424;1258;22594;-61
2023/05/09 13:28:02;;;;;;;7.60;6.50;;;23.70;49.60;;;;;;222687;1269;24183;-61
2023/05/09 13:33:08;;;;;;;7.70;6.40;;;23.70;50.00;;;;;;222181;1268;22514;-60
2023/05/09 13:38:30;;;;;;;7.30;6.20;;;23.70;49.70;;;;;;222216;1263;22541;-62
2023/05/09 13:43:35;;;;;;;7.00;5.60;;;23.70;49.70;;;;;;222377;1256;25407;-60
2023/05/09 13:48:40;;;;;;;7.80;6.20;;;23.70;49.60;;;;;;222413;1264;24371;-59
2023/05/09 13:53:45;;;;;;;6.90;5.50;;;23.70;49.80;;;;;;222651;1268;22932;-59
2023/05/09 13:58:49;;;;;;;7.10;6.00;;;23.60;49.70;;;;;;222702;1269;22959;-62
2023/05/09 14:03:53;;;;;;;7.50;6.20;;;23.80;50.00;;;;;;222293;1264;22504;-61
2023/05/09 14:08:57;;;;;;;8.90;5.60;;;23.60;50.00;;;;;;222095;1269;22527;-60
2023/05/09 14:14:02;;;;;;;7.50;5.00;;;23.60;50.10;;;;;;222464;1264;228575;-63
2023/05/09 14:19:06;;;;;;;6.50;5.60;;;23.70;50.10;;;;;;222462;1269;22537;-62
2023/05/09 14:24:11;;;;;;;6.40;5.80;;;23.60;49.80;;;;;;222258;1267;22512;-61
2023/05/09 14:29:18;;;;;;;6.00;5.20;;;23.60;50.00;;;;;;222543;1258;24233;-63
2023/05/09 14:34:23;;;;;;;5.90;5.30;;;23.60;49.90;;;;;;222298;1264;22522;-60
2023/05/09 14:39:27;;;;;;;7.60;4.80;;;23.60;49.90;;;;;;222278;1265;23325;-60
2023/05/09 14:44:31;;;;;;;6.10;4.60;;;23.60;49.80;;;;;;222467;1269;22515;-61
2023/05/09 14:49:38;;;;;;;4.60;4.20;;;23.60;49.80;;;;;;222608;1269;22541;-62
2023/05/09 14:54:42;;;;;;;6.70;4.70;;;23.60;49.70;;;;;;222652;1269;24214;-60
2023/05/09 14:59:47;;;;;;;6.40;4.50;;;23.60;49.80;;;;;;222712;1267;25553;-60
2023/05/09 15:04:51;;;;;;;5.10;4.60;;;23.60;49.60;;;;;;222609;1264;22743;-59
2023/05/09 15:09:55;;;;;;;9.30;4.90;;;23.50;49.80;;;;;;222332;1254;23939;-58
2023/05/09 15:15:17;;;;;;;8.60;4.60;;;23.60;49.70;;;;;;222358;1263;22520;-64
2023/05/09 15:20:21;;;;;;;8.80;4.20;;;23.50;50.40;;;;;;222213;1267;22518;-60
2023/05/09 15:25:26;;;;;;;7.90;4.20;;;23.60;50.40;;;;;;222646;1254;22623;-61
2023/05/09 15:30:30;;;;;;;9.80;4.00;;;23.50;51.30;;;;;;222518;1269;25364;-61
2023/05/09 15:35:36;;;;;;;12.20;4.80;;;23.60;52.60;;;;;;222542;1269;22521;-63
2023/05/09 15:40:40;;;;;;;10.90;5.00;;;23.60;54.90;;;;;;222333;1264;25768;-62
2023/05/09 15:45:45;;;;;;;5.50;4.30;;;23.70;54.30;;;;;;222178;1267;22616;-64
2023/05/09 15:50:52;;;;;;;6.30;4.90;;;23.60;55.90;;;;;;222560;1267;22637;-64
2023/05/09 15:55:56;;;;;;;10.00;4.40;;;23.60;56.30;;;;;;222790;1264;22698;-63
2023/05/09 16:01:04;;;;;;;12.70;4.50;;;23.60;54.70;;;;;;222256;1264;22512;-65
2023/05/09 16:06:09;;;;;;;8.10;4.20;;;23.60;56.40;;;;;;222173;1264;22648;-63
2023/05/09 16:11:13;;;;;;;19.00;4.90;;;23.70;58.00;;;;;;222455;1264;22589;-63
2023/05/09 16:16:17;;;;;;;9.90;5.40;;;23.70;56.10;;;;;;222523;1264;22648;-64
2023/05/09 16:21:25;;;;;;;11.10;5.00;;;23.70;56.40;;;;;;222105;1264;23376;-67
2023/05/09 16:26:29;;;;;;;10.60;4.90;;;23.70;56.40;;;;;;222407;1264;22516;-64
2023/05/09 16:31:35;;;;;;;9.10;4.10;;;23.70;56.50;;;;;;222540;1255;22520;-65
2023/05/09 16:36:40;;;;;;;20.60;4.30;;;23.70;55.90;;;;;;222500;1267;22647;-65
2023/05/09 16:41:44;;;;;;;9.70;4.60;;;23.80;55.20;;;;;;222231;1267;22518;-64
2023/05/09 16:46:48;;;;;;;15.00;4.50;;;23.90;54.60;;;;;;222763;1264;24236;-63
2023/05/09 16:51:53;;;;;;;70.90;56.60;;;23.80;54.30;;;;;;222453;1263;25278;-64
2023/05/09 16:56:57;;;;;;;60.60;43.10;;;23.70;55.00;;;;;;222497;1264;25258;-61
2023/05/09 17:02:03;;;;;;;44.00;31.40;;;23.70;54.90;;;;;;222282;1264;23882;-59
2023/05/09 17:07:07;;;;;;;43.60;30.20;;;23.80;54.50;;;;;;222118;1267;24330;-60
2023/05/09 17:12:16;;;;;;;47.10;29.70;;;23.70;54.20;;;;;;222461;1254;24223;-59
2023/05/09 17:17:20;;;;;;;44.60;28.50;;;23.80;54.10;;;;;;222321;1263;24073;-61
2023/05/09 17:22:24;;;;;;;48.50;29.00;;;23.70;54.20;;;;;;222060;1264;22520;-60
2023/05/09 17:27:32;;;;;;;34.90;26.70;;;23.70;54.00;;;;;;222369;1256;24146;-60
2023/05/09 17:32:36;;;;;;;37.70;26.40;;;23.80;53.60;;;;;;222254;1269;22546;-61
2023/05/09 17:37:40;;;;;;;38.10;26.60;;;23.80;54.40;;;;;;222203;1266;25334;-59
2023/05/09 17:42:45;;;;;;;40.40;28.40;;;23.90;55.50;;;;;;222135;1267;22571;-59
2023/05/09 17:47:49;;;;;;;40.30;26.40;;;23.80;54.90;;;;;;221818;1265;22508;-59
2023/05/09 17:52:54;;;;;;;29.10;22.80;;;23.60;55.10;;;;;;223421;1263;24222;-58
2023/05/09 17:57:59;;;;;;;30.70;22.40;;;23.50;54.10;;;;;;222521;1247;24228;-59
2023/05/09 18:03:04;;;;;;;27.50;21.20;;;23.60;53.30;;;;;;223230;1264;23464;-60
2023/05/09 18:08:08;;;;;;;26.50;20.70;;;23.70;53.50;;;;;;222263;1267;22534;-60
2023/05/09 18:13:13;;;;;;;27.70;20.90;;;23.70;52.90;;;;;;222528;1266;25265;-60
2023/05/09 18:18:17;;;;;;;22.90;19.40;;;23.70;53.10;;;;;;222984;1267;23158;-59
2023/05/09 18:23:24;;;;;;;22.70;19.20;;;23.60;53.30;;;;;;222540;1268;25343;-60
2023/05/09 18:28:28;;;;;;;24.30;18.60;;;23.60;53.50;;;;;;223084;1264;24236;-60
2023/05/09 18:33:37;;;;;;;23.50;18.20;;;23.60;54.00;;;;;;222548;1266;23941;-59
2023/05/09 18:38:43;;;;;;;23.10;18.40;;;23.60;53.90;;;;;;222260;1264;25485;-60
2023/05/09 18:43:47;;;;;;;20.40;16.40;;;23.60;53.30;;;;;;222973;1264;22458;-60
2023/05/09 18:48:52;;;;;;;22.70;17.20;;;23.50;53.90;;;;;;222490;1254;22518;-60
2023/05/09 18:53:57;;;;;;;19.80;15.80;;;23.60;53.30;;;;;;222529;1263;22634;-60
2023/05/09 18:59:02;;;;;;;21.20;16.60;;;23.60;52.60;;;;;;222552;1264;25449;-60
2023/05/09 19:04:08;;;;;;;21.20;15.80;;;23.60;52.60;;;;;;222379;1263;24236;-60
2023/05/09 19:09:13;;;;;;;18.70;15.40;;;23.50;52.50;;;;;;222410;1263;25384;-60
2023/05/09 19:14:18;;;;;;;18.00;15.70;;;23.50;52.30;;;;;;222674;1266;25312;-59
2023/05/09 19:19:24;;;;;;;19.70;15.40;;;23.50;52.10;;;;;;222319;1264;25230;-59
2023/05/09 19:24:31;;;;;;;16.70;14.80;;;23.50;52.00;;;;;;221754;1267;22514;-60
2023/05/09 19:29:37;;;;;;;18.50;14.50;;;23.50;51.90;;;;;;222053;1267;22573;-58
2023/05/09 19:34:42;;;;;;;18.80;14.30;;;23.50;51.60;;;;;;222754;1267;22613;-57
2023/05/09 19:39:52;;;;;;;18.40;13.80;;;23.60;51.50;;;;;;222320;1266;22508;-58
2023/05/09 19:44:57;;;;;;;18.00;14.10;;;23.70;51.50;;;;;;222331;1263;24193;-58
2023/05/09 19:50:05;;;;;;;21.80;14.60;;;23.60;52.20;;;;;;223155;1263;24344;-59
2023/05/09 19:55:12;;;;;;;15.20;13.10;;;23.60;52.10;;;;;;223030;1256;25265;-60
2023/05/09 20:00:19;;;;;;;14.80;12.50;;;23.60;53.00;;;;;;222184;1259;22617;-59
2023/05/09 20:05:23;;;;;;;16.80;13.20;;;23.70;53.10;;;;;;222488;1253;22579;-58
2023/05/09 20:10:47;;;;;;;37.60;21.60;;;23.70;53.80;;;;;;222675;1263;22591;-59
2023/05/09 20:15:54;;;;;;;49.50;29.90;;;23.80;53.50;;;;;;222760;1263;22523;-59
2023/05/09 20:21:04;;;;;;;55.50;32.20;;;23.80;53.80;;;;;;222637;1248;25376;-59
2023/05/09 20:26:14;;;;;;;43.20;27.10;;;23.90;53.50;;;;;;222385;1264;24183;-60
2023/05/09 20:31:20;;;;;;;42.70;24.70;;;24.00;52.90;;;;;;222732;1257;24212;-59
2023/05/09 20:36:28;;;;;;;47.20;24.10;;;23.70;53.50;;;;;;222334;1262;23923;-59
2023/05/09 20:41:47;;;;;;;37.50;22.80;;;23.80;53.20;;;;;;222396;1256;22633;-58
2023/05/09 20:46:52;;;;;;;42.80;23.40;;;23.70;53.10;;;;;;222753;1253;24169;-57
2023/05/09 20:51:58;;;;;;;40.80;21.50;;;23.80;53.40;;;;;;222812;1263;25442;-59
2023/05/09 20:57:03;;;;;;;35.50;20.90;;;23.70;53.10;;;;;;222758;1261;23261;-59
2023/05/09 21:02:07;;;;;;;36.40;22.10;;;23.60;53.30;;;;;;222402;1263;24221;-60
2023/05/09 21:07:12;;;;;;;34.00;19.40;;;23.70;53.10;;;;;;222679;1262;24241;-59
2023/05/09 21:12:16;;;;;;;34.70;20.50;;;23.60;54.80;;;;;;222567;1266;22522;-58
2023/05/09 21:17:20;;;;;;;36.30;20.50;;;23.60;54.90;;;;;;222735;1253;24327;-61
2023/05/09 21:22:24;;;;;;;42.50;20.30;;;23.50;54.60;;;;;;222591;1263;25491;-60
2023/05/09 21:27:32;;;;;;;30.80;18.00;;;23.50;55.70;;;;;;222125;1263;22520;-61
2023/05/09 21:32:36;;;;;;;32.40;19.80;;;23.60;54.90;;;;;;222559;1268;25364;-59
2023/05/09 21:37:40;;;;;;;26.10;17.70;;;23.50;55.30;;;;;;222262;1263;22697;-59
2023/05/09 21:42:46;;;;;;;27.60;18.10;;;23.50;54.60;;;;;;222326;1254;22507;-59
2023/05/09 21:47:49;;;;;;;29.00;17.10;;;23.40;54.80;;;;;;222484;1252;25387;-56
2023/05/09 21:52:55;;;;;;;24.40;15.90;;;23.50;54.80;;;;;;222330;1254;22552;-57
2023/05/09 21:57:59;;;;;;;21.10;15.00;;;23.50;54.70;;;;;;222564;1266;22581;-57
2023/05/09 22:03:03;;;;;;;23.30;15.30;;;23.40;54.30;;;;;;222660;1263;24183;-57
2023/05/09 22:08:08;;;;;;;25.50;15.50;;;23.40;54.20;;;;;;222454;1254;22626;-59
2023/05/09 22:13:14;;;;;;;21.80;14.60;;;23.40;54.30;;;;;;222262;1263;25494;-58
2023/05/09 22:18:18;;;;;;;21.70;14.30;;;23.40;54.10;;;;;;222449;1264;22510;-57
2023/05/09 22:23:23;;;;;;;19.50;13.00;;;23.30;53.50;;;;;;222365;1263;26633;-58
2023/05/09 22:28:27;;;;;;;26.00;13.70;;;23.30;53.90;;;;;;222686;1254;25224;-59
2023/05/09 22:33:32;;;;;;;19.70;13.20;;;23.40;53.80;;;;;;223286;1253;22519;-56
2023/05/09 22:38:37;;;;;;;19.60;13.40;;;23.30;54.00;;;;;;222500;1263;25508;-59
2023/05/09 22:43:42;;;;;;;18.90;12.10;;;23.20;54.20;;;;;;222472;1263;24214;-56
2023/05/09 22:48:46;;;;;;;19.50;12.90;;;23.20;54.40;;;;;;222803;1257;23883;-57
2023/05/09 22:53:51;;;;;;;17.50;13.10;;;23.10;54.20;;;;;;221605;1259;22528;-58
2023/05/09 22:58:56;;;;;;;21.20;14.30;;;23.10;54.10;;;;;;221474;1259;24384;-58
2023/05/09 23:04:01;;;;;;;18.10;13.10;;;23.10;54.40;;;;;;221567;1259;24201;-58
2023/05/09 23:09:05;;;;;;;18.00;11.50;;;23.10;54.50;;;;;;221377;1267;24638;-57
2023/05/09 23:14:10;;;;;;;15.70;12.00;;;23.00;54.50;;;;;;221232;1273;25319;-57
2023/05/09 23:19:15;;;;;;;16.90;11.50;;;23.10;54.50;;;;;;221407;1262;25363;-56
2023/05/09 23:24:19;;;;;;;17.10;12.00;;;23.00;54.50;;;;;;222417;1258;26820;-58
2023/05/09 23:29:24;;;;;;;14.80;11.20;;;23.00;54.60;;;;;;222196;1263;22692;-57
2023/05/09 23:34:29;;;;;;;13.60;10.50;;;23.00;54.70;;;;;;222140;1258;22508;-58
2023/05/09 23:39:34;;;;;;;17.60;11.30;;;22.90;58.00;;;;;;222378;1263;22632;-60
2023/05/09 23:44:39;;;;;;;14.90;10.70;;;23.10;58.50;;;;;;222152;1261;25462;-57
2023/05/09 23:49:44;;;;;;;12.10;10.00;;;23.20;58.90;;;;;;222552;1256;24174;-58
2023/05/09 23:54:49;;;;;;;12.60;10.10;;;23.20;58.20;;;;;;221959;1263;22637;-58
2023/05/09 23:59:53;;;;;;;13.10;9.80;;;23.30;58.20;;;;;;222230;1265;22507;-58
